Time;durP1;ratioP1;P1;durP2;ratioP2;P2;SDS_P1;SDS_P2;PMS_P1;PMS_P2;Temp;Humidity;BMP_temperature;BMP_pressure;BME280_temperature;BME280_humidity;BME280_pressure;Samples;Min_cycle;Max_cycle;Signal;HPM_P1;HPM_P2
2021/12/07 00:01:42;;;;;;;48.97;21.80;;;1.00;99.90;;;;;;5012720;28;20037;-72
2021/12/07 00:04:08;;;;;;;50.90;21.48;;;1.00;99.90;;;;;;5014852;28;20034;-73
2021/12/07 00:06:35;;;;;;;46.03;21.13;;;1.00;99.90;;;;;;5017727;28;20029;-72
2021/12/07 00:09:04;;;;;;;48.10;22.58;;;1.00;99.90;;;;;;5011637;28;20069;-72
2021/12/07 00:11:30;;;;;;;45.47;21.98;;;1.00;99.90;;;;;;5013421;28;20381;-72
2021/12/07 00:13:58;;;;;;;53.72;24.40;;;1.00;99.90;;;;;;5011644;28;20022;-72
2021/12/07 00:16:25;;;;;;;50.53;22.20;;;1.00;99.90;;;;;;5018425;28;20026;-72
2021/12/07 00:18:51;;;;;;;47.28;21.63;;;1.00;99.90;;;;;;5018438;28;20044;-72
2021/12/07 00:21:19;;;;;;;50.28;23.27;;;1.00;99.90;;;;;;5015754;28;20079;-72
2021/12/07 00:23:46;;;;;;;53.40;22.67;;;1.00;99.90;;;;;;5020920;28;20033;-72
2021/12/07 00:26:13;;;;;;;50.03;21.35;;;1.00;99.90;;;;;;5016987;28;20026;-72
2021/12/07 00:28:40;;;;;;;43.97;21.52;;;1.00;99.90;;;;;;5016670;28;20026;-72
2021/12/07 00:31:21;;;;;;;46.33;21.35;;;1.00;99.90;;;;;;5015473;28;20034;-72
2021/12/07 00:34:08;;;;;;;46.88;22.02;;;1.00;99.90;;;;;;5021258;28;20029;-72
2021/12/07 00:36:38;;;;;;;52.38;23.60;;;1.00;99.90;;;;;;5024976;28;20032;-73
2021/12/07 00:39:06;;;;;;;50.60;22.55;;;1.00;99.90;;;;;;5018203;28;20021;-72
2021/12/07 00:41:32;;;;;;;47.63;22.27;;;1.00;99.90;;;;;;5014460;28;20546;-71
2021/12/07 00:43:58;;;;;;;46.53;21.83;;;1.00;99.90;;;;;;5015136;28;20034;-72
2021/12/07 00:46:26;;;;;;;47.83;22.48;;;1.00;99.90;;;;;;5019198;28;20029;-71
2021/12/07 00:48:51;;;;;;;51.65;23.45;;;1.00;99.90;;;;;;5016991;28;20410;-72
2021/12/07 00:51:17;;;;;;;45.47;21.38;;;1.00;99.90;;;;;;5015487;28;20034;-71
2021/12/07 00:53:43;;;;;;;50.10;22.88;;;1.00;99.90;;;;;;5015578;28;20025;-71
2021/12/07 00:56:09;;;;;;;46.67;21.80;;;1.00;99.90;;;;;;5012997;28;20435;-71
2021/12/07 00:58:35;;;;;;;50.85;21.85;;;0.90;99.90;;;;;;5012297;28;20030;-71
2021/12/07 01:01:09;;;;;;;53.80;24.02;;;1.00;99.90;;;;;;5015350;28;20092;-71
2021/12/07 01:03:36;;;;;;;53.38;23.35;;;1.00;99.90;;;;;;5023704;28;20034;-72
2021/12/07 01:06:30;;;;;;;51.65;22.90;;;0.90;99.90;;;;;;5015310;28;20034;-71
2021/12/07 01:25:12;;;;;;;51.38;22.58;;;1.00;99.90;;;;;;5020280;28;20020;-71
2021/12/07 01:27:38;;;;;;;52.88;22.90;;;0.90;99.90;;;;;;5020806;28;20026;-71
2021/12/07 01:30:13;;;;;;;52.78;23.52;;;1.00;99.90;;;;;;5013209;28;20033;-71
2021/12/07 01:32:56;;;;;;;52.63;23.65;;;0.90;99.90;;;;;;5023427;28;20017;-71
2021/12/07 01:41:10;;;;;;;56.17;25.08;;;0.90;99.90;;;;;;5025289;28;20037;-72
2021/12/07 01:59:52;;;;;;;52.13;23.85;;;1.00;99.90;;;;;;5018944;28;20026;-73
2021/12/07 02:02:28;;;;;;;52.15;23.83;;;1.00;99.90;;;;;;5025700;28;20488;-71
2021/12/07 02:04:55;;;;;;;58.58;24.10;;;1.00;99.90;;;;;;5018967;28;20037;-72
2021/12/07 02:07:21;;;;;;;58.05;25.45;;;1.00;99.90;;;;;;5019882;28;20041;-71
2021/12/07 02:09:52;;;;;;;59.20;25.60;;;1.00;99.90;;;;;;5019155;28;20029;-72
2021/12/07 02:12:18;;;;;;;55.97;23.75;;;1.00;99.90;;;;;;5015012;28;20377;-72
2021/12/07 02:14:44;;;;;;;51.05;23.50;;;1.00;99.90;;;;;;5015938;28;20106;-72
2021/12/07 02:17:13;;;;;;;56.17;25.50;;;1.00;99.90;;;;;;5020856;28;20076;-72
2021/12/07 02:19:39;;;;;;;53.30;23.75;;;0.90;99.90;;;;;;4999894;28;20037;-72
2021/12/07 02:22:06;;;;;;;54.45;23.38;;;0.90;99.90;;;;;;5018673;28;20021;-72
2021/12/07 02:24:33;;;;;;;53.40;23.27;;;1.00;99.90;;;;;;5017779;28;20446;-71
2021/12/07 02:26:59;;;;;;;52.97;24.38;;;1.00;99.90;;;;;;5017824;28;20026;-72
2021/12/07 02:29:25;;;;;;;58.55;25.13;;;0.90;99.90;;;;;;5017449;28;20026;-72
2021/12/07 02:31:53;;;;;;;57.13;24.95;;;0.90;99.90;;;;;;5021286;28;20029;-72
2021/12/07 02:34:21;;;;;;;55.42;25.02;;;0.90;99.90;;;;;;5018231;28;20049;-72
2021/12/07 02:36:46;;;;;;;54.50;25.65;;;1.00;99.90;;;;;;5018241;28;20076;-72
2021/12/07 02:39:13;;;;;;;61.95;23.73;;;1.00;99.90;;;;;;5018467;28;20488;-71
2021/12/07 02:41:40;;;;;;;53.50;23.17;;;1.00;99.90;;;;;;4999512;28;20033;-72
2021/12/07 02:44:07;;;;;;;55.55;24.90;;;1.00;99.90;;;;;;5022861;28;20099;-71
2021/12/07 02:46:34;;;;;;;57.72;24.77;;;1.00;99.90;;;;;;5019417;28;20039;-72
2021/12/07 02:48:59;;;;;;;53.30;22.95;;;1.00;99.90;;;;;;5018847;28;20041;-71
2021/12/07 02:51:25;;;;;;;52.47;24.52;;;1.00;99.90;;;;;;5016416;28;20037;-72
2021/12/07 02:53:51;;;;;;;56.13;24.58;;;1.00;99.90;;;;;;5018742;28;20029;-72
2021/12/07 02:56:17;;;;;;;51.17;23.95;;;1.00;99.90;;;;;;5020577;28;20040;-72
2021/12/07 02:58:44;;;;;;;55.10;25.20;;;1.00;99.90;;;;;;5019509;28;20101;-71
2021/12/07 03:01:20;;;;;;;49.95;22.80;;;1.00;99.90;;;;;;5014739;28;20034;-71
2021/12/07 03:04:02;;;;;;;54.13;23.13;;;1.00;99.90;;;;;;5016734;28;20037;-72
2021/12/07 03:06:46;;;;;;;56.00;23.23;;;1.00;99.90;;;;;;5004153;28;20032;-72
2021/12/07 03:28:16;;;;;;;60.10;25.63;;;1.10;99.90;;;;;;5012526;28;20025;-72
2021/12/07 03:30:42;;;;;;;57.42;26.00;;;1.10;99.90;;;;;;5010546;28;20028;-72
2021/12/07 03:33:08;;;;;;;58.40;26.05;;;1.20;99.90;;;;;;5019857;28;20022;-71
2021/12/07 03:35:34;;;;;;;56.50;25.38;;;1.10;99.90;;;;;;5014417;28;20472;-71
2021/12/07 03:38:00;;;;;;;57.53;24.88;;;1.10;99.90;;;;;;5016640;28;20030;-71
2021/12/07 03:40:26;;;;;;;58.28;26.33;;;1.10;99.90;;;;;;5018609;28;20093;-71
2021/12/07 03:42:52;;;;;;;55.95;24.92;;;1.10;99.90;;;;;;5015718;28;20036;-72
2021/12/07 03:45:18;;;;;;;59.47;25.15;;;1.10;99.90;;;;;;5013387;28;20037;-71
2021/12/07 03:47:44;;;;;;;55.97;25.00;;;1.10;99.90;;;;;;5017046;28;20116;-71
2021/12/07 03:50:11;;;;;;;54.97;24.45;;;1.10;99.90;;;;;;5014798;28;20107;-72
2021/12/07 03:52:37;;;;;;;55.80;24.92;;;1.20;99.90;;;;;;4996232;28;20114;-71
2021/12/07 03:55:05;;;;;;;52.28;23.55;;;1.20;99.90;;;;;;5022584;28;20018;-71
2021/12/07 03:57:30;;;;;;;56.95;24.48;;;1.10;99.90;;;;;;5018065;28;20022;-71
2021/12/07 03:59:57;;;;;;;55.75;24.50;;;1.20;99.90;;;;;;5024614;28;20049;-72
2021/12/07 04:02:23;;;;;;;54.42;25.05;;;1.20;99.90;;;;;;5020819;28;20120;-71
2021/12/07 04:04:58;;;;;;;58.08;25.55;;;1.20;99.90;;;;;;5001897;28;20040;-71
2021/12/07 04:07:23;;;;;;;55.08;24.98;;;1.20;99.90;;;;;;5016330;28;20026;-71
2021/12/07 04:09:49;;;;;;;54.83;24.33;;;1.20;99.90;;;;;;5014084;28;20045;-71
2021/12/07 04:12:15;;;;;;;62.92;25.90;;;1.20;99.90;;;;;;5018069;28;20017;-71
2021/12/07 04:14:40;;;;;;;57.55;25.48;;;1.20;99.90;;;;;;5019231;28;20018;-72
2021/12/07 04:17:06;;;;;;;54.15;24.52;;;1.30;99.90;;;;;;5017736;28;20026;-71
2021/12/07 04:19:31;;;;;;;55.92;24.50;;;1.30;99.90;;;;;;5005060;28;20068;-72
2021/12/07 04:21:58;;;;;;;55.55;26.58;;;1.30;99.90;;;;;;5016944;28;20045;-71
2021/12/07 04:24:27;;;;;;;56.10;25.15;;;1.30;99.90;;;;;;5019663;28;20045;-71
2021/12/07 04:26:54;;;;;;;52.58;22.83;;;1.30;99.90;;;;;;5018950;28;20399;-71
2021/12/07 04:29:20;;;;;;;55.80;24.55;;;1.30;99.90;;;;;;5016124;28;20029;-71
2021/12/07 04:31:46;;;;;;;58.53;24.45;;;1.30;99.90;;;;;;5015871;28;20034;-71
2021/12/07 04:34:11;;;;;;;61.42;26.27;;;1.30;99.90;;;;;;5016438;28;20018;-71
2021/12/07 04:36:37;;;;;;;56.10;24.60;;;1.30;99.90;;;;;;5021491;28;20053;-71
2021/12/07 04:39:04;;;;;;;54.08;24.50;;;1.30;99.90;;;;;;5020622;28;20071;-71
2021/12/07 04:41:33;;;;;;;53.83;24.83;;;1.30;99.90;;;;;;5023056;28;20045;-71
2021/12/07 04:44:00;;;;;;;60.55;26.58;;;1.30;99.90;;;;;;5021855;28;20660;-71
2021/12/07 04:46:37;;;;;;;61.72;26.63;;;1.30;99.90;;;;;;5023120;28;20087;-71
2021/12/07 05:00:08;;;;;;;57.30;24.08;;;1.30;99.90;;;;;;5015301;28;20033;-71
2021/12/07 05:02:36;;;;;;;57.40;25.25;;;1.30;99.90;;;;;;5020262;28;20526;-73
2021/12/07 05:05:02;;;;;;;58.58;24.63;;;1.30;99.90;;;;;;5022049;28;20100;-71
2021/12/07 05:07:34;;;;;;;55.90;24.60;;;1.30;99.90;;;;;;5021679;28;20021;-73
2021/12/07 05:15:07;;;;;;;58.80;25.70;;;1.30;99.90;;;;;;5018340;28;20018;-71
2021/12/07 05:39:36;;;;;;;50.10;22.70;;;1.30;99.90;;;;;;5023641;28;20527;-72
2021/12/07 05:42:02;;;;;;;55.80;24.83;;;1.30;99.90;;;;;;5018749;28;20034;-72
2021/12/07 05:44:27;;;;;;;56.25;24.10;;;1.30;99.90;;;;;;5017718;28;20026;-72
2021/12/07 05:46:53;;;;;;;57.42;25.08;;;1.30;99.90;;;;;;5002578;28;20025;-72
2021/12/07 05:49:19;;;;;;;56.60;25.00;;;1.30;99.90;;;;;;5024063;28;20037;-72
2021/12/07 05:51:45;;;;;;;52.45;24.20;;;1.30;99.90;;;;;;5019519;28;20476;-72
2021/12/07 05:54:11;;;;;;;52.28;23.15;;;1.40;99.90;;;;;;5020202;28;20025;-72
2021/12/07 05:56:37;;;;;;;44.67;21.25;;;1.40;99.90;;;;;;5018635;28;20422;-72
2021/12/07 05:59:03;;;;;;;56.78;24.15;;;1.40;99.90;;;;;;5016647;28;20037;-72
2021/12/07 06:01:28;;;;;;;61.08;25.13;;;1.30;99.90;;;;;;5020961;28;20124;-72
2021/12/07 06:03:54;;;;;;;54.22;23.95;;;1.30;99.90;;;;;;5020501;28;20034;-72
2021/12/07 06:06:20;;;;;;;50.65;23.60;;;1.30;99.90;;;;;;5016574;28;20037;-75
2021/12/07 06:08:45;;;;;;;52.60;23.17;;;1.30;99.90;;;;;;5025813;28;20037;-72
2021/12/07 06:11:11;;;;;;;50.67;22.75;;;1.30;99.90;;;;;;5017221;28;20040;-72
2021/12/07 06:13:37;;;;;;;53.22;22.95;;;1.30;99.90;;;;;;5026804;28;20033;-72
2021/12/07 06:16:07;;;;;;;52.47;24.55;;;1.30;99.90;;;;;;4999902;28;20014;-72
2021/12/07 06:18:33;;;;;;;55.53;24.17;;;1.40;99.90;;;;;;5017212;28;20029;-72
2021/12/07 06:21:00;;;;;;;50.40;23.17;;;1.40;99.90;;;;;;5015909;28;20092;-71
2021/12/07 06:23:25;;;;;;;49.20;21.83;;;1.40;99.90;;;;;;5014137;28;20041;-71
2021/12/07 06:25:54;;;;;;;49.15;23.42;;;1.30;99.90;;;;;;5013514;28;20030;-72
2021/12/07 06:28:20;;;;;;;47.63;22.90;;;1.30;99.90;;;;;;5021062;28;20033;-72
2021/12/07 06:30:47;;;;;;;50.83;22.48;;;1.40;99.90;;;;;;5020020;28;20507;-72
2021/12/07 06:33:15;;;;;;;51.55;23.38;;;1.30;99.90;;;;;;5015401;28;20051;-73
2021/12/07 06:35:42;;;;;;;49.17;21.52;;;1.30;99.90;;;;;;5019518;28;20024;-72
2021/12/07 06:38:08;;;;;;;48.80;21.92;;;1.30;99.90;;;;;;5015374;28;20025;-75
2021/12/07 06:40:34;;;;;;;51.30;22.13;;;1.30;99.90;;;;;;5018679;28;20483;-74
2021/12/07 06:43:00;;;;;;;50.88;23.08;;;1.40;99.90;;;;;;5022712;28;20084;-73
2021/12/07 06:45:30;;;;;;;49.95;23.38;;;1.30;99.90;;;;;;5008880;28;20034;-73
2021/12/07 06:47:56;;;;;;;46.72;21.80;;;1.30;99.90;;;;;;5023059;28;20519;-72
2021/12/07 06:50:23;;;;;;;42.58;20.38;;;1.30;99.90;;;;;;5026331;28;20033;-73
2021/12/07 06:52:49;;;;;;;44.95;19.90;;;1.30;99.90;;;;;;5024148;28;20025;-73
2021/12/07 06:55:14;;;;;;;50.58;21.60;;;1.30;99.90;;;;;;5003841;28;20033;-73
2021/12/07 06:57:40;;;;;;;47.83;21.70;;;1.30;99.90;;;;;;5014145;28;20033;-74
2021/12/07 07:00:11;;;;;;;51.78;22.52;;;1.30;99.90;;;;;;5019144;28;20025;-72
2021/12/07 07:02:37;;;;;;;50.00;22.08;;;1.20;99.90;;;;;;5019901;28;20026;-74
2021/12/07 07:05:04;;;;;;;47.30;21.20;;;1.30;99.90;;;;;;5022929;28;20161;-75
2021/12/07 07:07:32;;;;;;;50.20;21.90;;;1.30;99.90;;;;;;5015820;28;20076;-73
2021/12/07 07:09:58;;;;;;;49.88;21.45;;;1.30;99.90;;;;;;5024243;28;20041;-73
2021/12/07 07:12:24;;;;;;;50.17;24.27;;;1.30;99.90;;;;;;5016819;28;20037;-73
2021/12/07 07:14:51;;;;;;;50.53;21.88;;;1.30;99.90;;;;;;5016439;28;20049;-73
2021/12/07 07:17:17;;;;;;;42.67;20.25;;;1.30;99.90;;;;;;5001785;28;20033;-75
2021/12/07 07:19:43;;;;;;;49.80;22.27;;;1.30;99.90;;;;;;5023381;28;20033;-75
2021/12/07 07:22:09;;;;;;;45.97;21.05;;;1.30;99.90;;;;;;5004131;28;20039;-74
2021/12/07 07:24:36;;;;;;;53.83;22.08;;;1.40;99.90;;;;;;5026984;28;20117;-76
2021/12/07 07:27:02;;;;;;;52.38;22.38;;;1.40;99.90;;;;;;5019404;28;20026;-76
2021/12/07 07:29:28;;;;;;;45.88;21.33;;;1.40;99.90;;;;;;5016955;28;20018;-76
2021/12/07 07:31:54;;;;;;;48.05;21.63;;;1.40;99.90;;;;;;5016528;28;20087;-76
2021/12/07 07:34:20;;;;;;;45.45;21.65;;;1.40;99.90;;;;;;5016823;28;20054;-74
2021/12/07 07:36:45;;;;;;;46.72;20.67;;;1.40;99.90;;;;;;5019147;28;20025;-75
2021/12/07 07:39:12;;;;;;;51.35;23.25;;;1.40;99.90;;;;;;5023449;28;20071;-75
2021/12/07 07:41:37;;;;;;;47.28;21.88;;;1.40;99.90;;;;;;5029045;28;20072;-75
2021/12/07 07:44:05;;;;;;;47.03;21.42;;;1.40;99.90;;;;;;5019380;28;20113;-75
2021/12/07 07:46:30;;;;;;;49.22;22.38;;;1.40;99.90;;;;;;5018962;28;20033;-76
2021/12/07 07:48:57;;;;;;;45.10;20.75;;;1.40;99.90;;;;;;5020893;28;20092;-76
2021/12/07 07:51:23;;;;;;;45.03;20.25;;;1.40;99.90;;;;;;5020391;28;20033;-75
2021/12/07 07:53:50;;;;;;;47.30;22.27;;;1.40;99.90;;;;;;5025184;28;20033;-75
2021/12/07 07:56:17;;;;;;;46.00;21.70;;;1.40;99.90;;;;;;5021682;28;20076;-81
2021/12/07 07:58:45;;;;;;;49.20;21.55;;;1.40;99.90;;;;;;5019439;28;20029;-75
2021/12/07 08:01:11;;;;;;;51.10;22.02;;;1.40;99.90;;;;;;5017167;28;20028;-76
2021/12/07 08:03:37;;;;;;;47.60;21.75;;;1.40;99.90;;;;;;5011278;28;20094;-76
2021/12/07 08:06:02;;;;;;;47.35;20.45;;;1.40;99.90;;;;;;4997787;28;20022;-74
2021/12/07 08:08:29;;;;;;;46.80;21.05;;;1.50;99.90;;;;;;5014597;28;20400;-75
2021/12/07 08:10:54;;;;;;;42.08;20.45;;;1.40;99.90;;;;;;5019206;28;20029;-74
2021/12/07 08:13:20;;;;;;;43.67;19.80;;;1.50;99.90;;;;;;5013277;28;20084;-74
2021/12/07 08:15:49;;;;;;;47.20;20.88;;;1.50;99.90;;;;;;5016808;28;20030;-74
2021/12/07 08:18:15;;;;;;;42.95;21.10;;;1.50;99.90;;;;;;5012598;28;20024;-75
2021/12/07 08:20:42;;;;;;;45.78;20.08;;;1.40;99.90;;;;;;5019056;28;20400;-75
2021/12/07 08:23:09;;;;;;;47.03;21.42;;;1.50;99.90;;;;;;5003333;28;20407;-74
2021/12/07 08:25:38;;;;;;;46.97;22.25;;;1.50;99.90;;;;;;5018920;28;20034;-74
2021/12/07 08:28:07;;;;;;;49.13;21.08;;;1.40;99.90;;;;;;5012887;28;20026;-75
2021/12/07 08:30:34;;;;;;;49.65;21.67;;;1.40;99.90;;;;;;5019066;28;20503;-75
2021/12/07 08:33:00;;;;;;;47.47;20.88;;;1.50;99.90;;;;;;5020748;28;20041;-75
2021/12/07 08:35:26;;;;;;;40.63;19.35;;;1.50;99.90;;;;;;4994643;28;20022;-75
2021/12/07 08:37:51;;;;;;;47.65;20.65;;;1.50;99.90;;;;;;5013843;28;21296;-74
2021/12/07 08:40:21;;;;;;;44.58;19.05;;;1.50;99.90;;;;;;5003517;28;20022;-74
2021/12/07 08:42:48;;;;;;;48.17;21.17;;;1.50;99.90;;;;;;5011472;28;20025;-74
2021/12/07 08:45:14;;;;;;;47.85;22.45;;;1.50;99.90;;;;;;5014483;28;20022;-74
2021/12/07 08:47:39;;;;;;;44.22;21.50;;;1.50;99.90;;;;;;5018143;28;20059;-74
2021/12/07 08:50:09;;;;;;;51.75;22.52;;;1.50;99.90;;;;;;5011192;28;21008;-74
2021/12/07 08:52:35;;;;;;;41.17;19.63;;;1.50;99.90;;;;;;5012475;28;20022;-76
2021/12/07 09:00:45;;;;;;;49.25;21.50;;;1.60;99.90;;;;;;5011857;28;20540;-75
2021/12/07 09:03:11;;;;;;;50.95;22.70;;;1.60;99.90;;;;;;5022698;28;20065;-75
2021/12/07 09:05:38;;;;;;;49.65;22.52;;;1.60;99.90;;;;;;5012381;28;20545;-76
2021/12/07 09:08:04;;;;;;;54.97;23.70;;;1.60;99.90;;;;;;5018231;28;20025;-76
2021/12/07 09:10:30;;;;;;;49.65;23.10;;;1.60;99.90;;;;;;5010985;28;20049;-76
2021/12/07 09:12:55;;;;;;;51.03;22.85;;;1.70;99.90;;;;;;5012586;28;20100;-76
2021/12/07 09:15:21;;;;;;;47.33;22.00;;;1.70;99.90;;;;;;5009610;28;20029;-75
2021/12/07 09:17:47;;;;;;;51.00;22.23;;;1.70;99.90;;;;;;5021407;28;20455;-75
2021/12/07 09:20:16;;;;;;;50.55;23.30;;;1.70;99.90;;;;;;4999777;28;20033;-75
2021/12/07 09:22:47;;;;;;;47.22;22.70;;;1.80;99.90;;;;;;5015969;28;20026;-75
2021/12/07 09:25:13;;;;;;;59.15;22.60;;;1.70;99.90;;;;;;5009048;28;20425;-75
2021/12/07 09:27:40;;;;;;;49.85;22.20;;;1.80;99.90;;;;;;5019454;28;20030;-76
2021/12/07 09:30:07;;;;;;;50.03;22.63;;;1.80;99.90;;;;;;5019138;28;20056;-75
2021/12/07 09:32:34;;;;;;;54.45;22.90;;;1.70;99.90;;;;;;5004312;28;20061;-76
2021/12/07 09:35:02;;;;;;;48.92;22.35;;;1.70;99.90;;;;;;5013911;28;20041;-76
2021/12/07 09:37:28;;;;;;;44.97;21.63;;;1.80;99.90;;;;;;5017984;28;20026;-76
2021/12/07 09:39:53;;;;;;;54.10;23.27;;;1.80;99.90;;;;;;5021253;28;20021;-76
2021/12/07 09:42:19;;;;;;;50.25;22.75;;;1.80;99.90;;;;;;5007735;28;20034;-75
2021/12/07 09:44:48;;;;;;;50.45;23.15;;;1.80;99.90;;;;;;5019550;28;20033;-75
2021/12/07 09:47:14;;;;;;;54.63;23.52;;;1.90;99.90;;;;;;5005204;28;20037;-75
2021/12/07 09:49:40;;;;;;;49.97;22.80;;;1.80;99.90;;;;;;5015599;28;20029;-75
2021/12/07 09:52:06;;;;;;;51.53;24.38;;;1.80;99.90;;;;;;5023651;28;20021;-75
2021/12/07 09:54:32;;;;;;;50.80;21.60;;;1.90;99.90;;;;;;5022995;28;20041;-75
2021/12/07 09:56:57;;;;;;;49.63;22.30;;;1.90;99.90;;;;;;5013566;28;20029;-75
2021/12/07 09:59:23;;;;;;;51.88;22.75;;;1.90;99.90;;;;;;5021770;28;20025;-75
2021/12/07 10:01:49;;;;;;;47.70;22.30;;;1.90;99.90;;;;;;5015331;28;20436;-75
2021/12/07 10:04:15;;;;;;;50.55;23.38;;;1.90;99.90;;;;;;5017108;28;20097;-76
2021/12/07 10:06:41;;;;;;;49.65;22.75;;;2.00;99.90;;;;;;5020681;28;20030;-76
2021/12/07 10:09:08;;;;;;;45.10;21.63;;;2.00;99.90;;;;;;5020074;28;20380;-75
2021/12/07 10:11:34;;;;;;;53.80;23.52;;;2.00;99.90;;;;;;5017163;28;20026;-75
2021/12/07 10:14:01;;;;;;;47.45;21.25;;;2.00;99.90;;;;;;5020816;28;20022;-75
2021/12/07 10:16:27;;;;;;;50.15;22.75;;;2.10;99.90;;;;;;5012272;28;20030;-75
2021/12/07 10:18:55;;;;;;;50.70;23.02;;;2.10;99.90;;;;;;5013361;28;20037;-76
2021/12/07 10:21:26;;;;;;;51.40;22.60;;;2.10;99.90;;;;;;5018696;28;20522;-75
2021/12/07 10:23:58;;;;;;;50.80;22.88;;;2.10;99.90;;;;;;5019816;28;20424;-75
2021/12/07 10:26:26;;;;;;;43.08;20.52;;;2.00;99.90;;;;;;5013183;28;20092;-76
2021/12/07 10:28:56;;;;;;;45.05;21.92;;;2.00;99.90;;;;;;5019268;28;20087;-76
2021/12/07 10:31:27;;;;;;;48.60;20.88;;;2.10;99.90;;;;;;5024534;28;20480;-75
2021/12/07 10:34:04;;;;;;;54.40;21.95;;;2.00;99.90;;;;;;5021516;28;20030;-76
2021/12/07 10:36:35;;;;;;;52.97;21.52;;;2.10;99.90;;;;;;5018360;28;20029;-76
2021/12/07 10:39:12;;;;;;;47.10;22.67;;;2.10;99.90;;;;;;5018430;28;20054;-75
2021/12/07 10:41:42;;;;;;;48.47;21.52;;;2.10;99.90;;;;;;5018779;28;20388;-75
2021/12/07 10:44:17;;;;;;;47.22;21.45;;;2.20;99.90;;;;;;5012940;28;20057;-76
2021/12/07 10:46:58;;;;;;;50.58;23.73;;;2.20;99.90;;;;;;5017870;28;20048;-78
2021/12/07 10:49:46;;;;;;;49.22;22.42;;;2.30;99.90;;;;;;5021547;28;20044;-76
2021/12/07 10:52:20;;;;;;;49.28;20.92;;;2.30;99.90;;;;;;5017456;28;20032;-75
2021/12/07 10:54:48;;;;;;;51.38;23.67;;;2.30;99.90;;;;;;5014220;28;20018;-76
2021/12/07 10:57:27;;;;;;;48.65;22.52;;;2.20;99.90;;;;;;5016291;28;20342;-75
2021/12/07 11:00:03;;;;;;;52.30;24.08;;;2.20;99.90;;;;;;5002082;28;20063;-75
2021/12/07 11:02:33;;;;;;;48.88;22.50;;;2.20;99.90;;;;;;5027030;28;20514;-75
2021/12/07 11:05:02;;;;;;;48.38;22.17;;;2.20;99.90;;;;;;5019903;28;20048;-75
2021/12/07 11:07:30;;;;;;;50.70;22.42;;;2.20;99.90;;;;;;4994912;28;20101;-75
2021/12/07 11:12:57;;;;;;;52.03;23.48;;;2.20;99.90;;;;;;5022050;28;20109;-75
2021/12/07 11:15:26;;;;;;;48.50;22.33;;;2.30;99.90;;;;;;5000804;28;20022;-76
2021/12/07 11:17:57;;;;;;;51.83;22.08;;;2.30;99.90;;;;;;5014248;28;20053;-75
2021/12/07 11:20:25;;;;;;;50.35;22.48;;;2.20;99.90;;;;;;5024893;28;20022;-75
2021/12/07 11:22:55;;;;;;;47.03;22.08;;;2.30;99.90;;;;;;5018815;28;20426;-75
2021/12/07 11:31:25;;;;;;;49.78;22.92;;;2.30;99.90;;;;;;5011036;28;20499;-74
2021/12/07 11:34:05;;;;;;;48.13;22.42;;;2.30;99.90;;;;;;5021143;28;20089;-74
2021/12/07 11:36:34;;;;;;;48.80;22.15;;;2.30;99.90;;;;;;5014845;28;20411;-73
2021/12/07 11:39:03;;;;;;;48.35;21.08;;;2.30;99.90;;;;;;5013691;28;20025;-72
2021/12/07 11:41:32;;;;;;;48.13;22.02;;;2.30;99.90;;;;;;5014859;28;20026;-72
2021/12/07 11:44:09;;;;;;;51.65;22.58;;;2.40;99.90;;;;;;5017006;28;20026;-75
2021/12/07 11:46:38;;;;;;;47.83;21.65;;;2.40;99.90;;;;;;4999998;28;20123;-74
2021/12/07 11:49:08;;;;;;;52.47;23.48;;;2.40;99.90;;;;;;5015087;28;20472;-74
2021/12/07 11:51:34;;;;;;;48.50;21.48;;;2.70;99.90;;;;;;5014798;28;20025;-73
2021/12/07 11:54:00;;;;;;;52.40;22.60;;;2.70;99.90;;;;;;5001565;28;20076;-74
2021/12/07 11:56:26;;;;;;;45.28;21.02;;;2.60;99.90;;;;;;5013420;28;20058;-74
2021/12/07 11:58:52;;;;;;;46.97;21.65;;;2.60;99.90;;;;;;5015052;28;20105;-74
2021/12/07 12:01:19;;;;;;;47.67;21.75;;;2.60;99.90;;;;;;5016405;28;20105;-75
2021/12/07 12:03:44;;;;;;;55.75;26.83;;;2.40;99.90;;;;;;5020584;28;20119;-75
2021/12/07 12:06:10;;;;;;;128.50;65.82;;;2.40;99.90;;;;;;5014957;28;20487;-74
2021/12/07 12:08:37;;;;;;;164.70;72.60;;;2.40;99.90;;;;;;5016857;28;20045;-74
2021/12/07 12:11:19;;;;;;;84.53;39.13;;;2.40;99.90;;;;;;5017470;28;20025;-74
2021/12/07 12:14:22;;;;;;;53.65;25.25;;;2.50;99.90;;;;;;5019956;28;20056;-76
2021/12/07 12:17:25;;;;;;;47.10;22.27;;;2.80;99.90;;;;;;5014138;28;20033;-74
2021/12/07 12:20:26;;;;;;;45.20;21.20;;;3.00;99.90;;;;;;5015248;28;20033;-75
2021/12/07 12:23:22;;;;;;;47.53;22.88;;;2.90;99.90;;;;;;4975962;28;20090;-75
2021/12/07 12:25:59;;;;;;;46.60;22.80;;;2.80;99.90;;;;;;4978256;28;20061;-76
2021/12/07 12:28:32;;;;;;;43.85;21.08;;;2.70;99.90;;;;;;5017756;28;20038;-73
2021/12/07 12:30:58;;;;;;;45.47;21.27;;;2.70;99.90;;;;;;5014799;28;20113;-74
2021/12/07 12:33:24;;;;;;;46.25;21.98;;;2.70;99.90;;;;;;5011522;28;21002;-75
2021/12/07 12:35:53;;;;;;;50.20;21.63;;;2.70;99.90;;;;;;5013382;28;20029;-75
2021/12/07 12:38:26;;;;;;;42.42;20.95;;;2.70;99.90;;;;;;5010782;28;20041;-75
2021/12/07 12:40:59;;;;;;;46.97;22.52;;;2.70;99.90;;;;;;5015693;28;20051;-75
2021/12/07 12:43:49;;;;;;;45.90;22.63;;;2.70;99.90;;;;;;5013935;28;20025;-75
2021/12/07 12:46:18;;;;;;;45.03;19.98;;;2.70;99.90;;;;;;5015433;28;20026;-75
2021/12/07 12:49:06;;;;;;;43.85;21.65;;;2.60;99.90;;;;;;5013753;28;20026;-75
2021/12/07 12:51:46;;;;;;;50.08;22.40;;;2.70;99.90;;;;;;5015659;28;20029;-75
2021/12/07 12:54:12;;;;;;;50.22;22.33;;;2.70;99.90;;;;;;5015321;28;20026;-75
2021/12/07 12:56:39;;;;;;;50.22;23.90;;;2.70;99.90;;;;;;5017428;28;20033;-75
2021/12/07 12:59:09;;;;;;;44.65;21.70;;;2.60;99.90;;;;;;5017920;28;20029;-75
2021/12/07 13:01:39;;;;;;;49.67;23.48;;;2.70;99.90;;;;;;5019760;28;20065;-75
2021/12/07 13:04:14;;;;;;;48.55;21.50;;;2.70;99.90;;;;;;5021507;28;20034;-74
2021/12/07 13:07:40;;;;;;;49.38;22.38;;;2.70;99.90;;;;;;5020887;28;20037;-74
2021/12/07 13:09:47;;;;;;;47.60;21.67;;;2.70;99.90;;;;;;5019058;28;20073;-75
2021/12/07 13:12:15;;;;;;;51.75;23.58;;;2.70;99.90;;;;;;5025063;28;20064;-75
2021/12/07 13:14:53;;;;;;;47.45;23.52;;;2.70;99.90;;;;;;5019164;28;20034;-74
2021/12/07 13:17:25;;;;;;;51.13;21.98;;;2.70;99.90;;;;;;5016733;28;20021;-74
2021/12/07 13:20:09;;;;;;;50.17;23.20;;;2.70;99.90;;;;;;5017696;28;20080;-74
2021/12/07 13:22:56;;;;;;;54.70;23.50;;;2.70;99.90;;;;;;5023737;28;20480;-74
2021/12/07 13:25:31;;;;;;;54.53;24.27;;;2.60;99.90;;;;;;5015757;28;20104;-75
2021/12/07 13:28:05;;;;;;;53.45;23.25;;;2.60;99.90;;;;;;5023686;28;20115;-74
2021/12/07 13:30:49;;;;;;;55.28;24.90;;;2.60;99.90;;;;;;5019725;28;20055;-74
2021/12/07 13:33:30;;;;;;;51.92;23.60;;;2.60;99.90;;;;;;5016305;28;20026;-74
2021/12/07 13:35:57;;;;;;;52.38;22.70;;;2.60;99.90;;;;;;5018741;28;20026;-75
2021/12/07 13:38:27;;;;;;;50.88;23.08;;;2.60;99.90;;;;;;5024066;28;20028;-73
2021/12/07 13:41:15;;;;;;;49.72;22.55;;;2.70;99.90;;;;;;5018963;28;20040;-73
2021/12/07 13:47:20;;;;;;;51.17;23.23;;;2.60;99.90;;;;;;5024409;28;20475;-75
2021/12/07 13:49:52;;;;;;;46.35;21.60;;;2.60;99.90;;;;;;5016216;28;20029;-73
2021/12/07 13:52:38;;;;;;;46.78;21.85;;;2.60;99.90;;;;;;5016505;28;20542;-73
2021/12/07 13:55:11;;;;;;;47.80;21.40;;;2.50;99.90;;;;;;5018481;28;20014;-74
2021/12/07 13:57:39;;;;;;;50.67;23.15;;;2.50;99.90;;;;;;5020481;28;20018;-73
2021/12/07 14:00:20;;;;;;;46.47;21.50;;;2.50;99.90;;;;;;5019751;28;20369;-75
2021/12/07 14:02:53;;;;;;;49.83;22.20;;;2.50;99.90;;;;;;5019298;28;20491;-74
2021/12/07 14:05:28;;;;;;;50.72;22.88;;;2.50;99.90;;;;;;5015318;28;20121;-75
2021/12/07 14:07:56;;;;;;;47.25;21.75;;;2.50;99.90;;;;;;5014170;28;20030;-74
2021/12/07 14:10:29;;;;;;;50.97;21.90;;;2.50;99.90;;;;;;5000697;28;20030;-75
2021/12/07 14:12:58;;;;;;;49.90;21.83;;;2.50;99.90;;;;;;5017896;28;20027;-75
2021/12/07 14:15:26;;;;;;;52.25;22.60;;;2.50;99.90;;;;;;5022704;28;20019;-74
2021/12/07 14:18:01;;;;;;;50.05;22.83;;;2.50;99.90;;;;;;5018609;28;20053;-74
2021/12/07 14:20:32;;;;;;;47.28;22.17;;;2.50;99.90;;;;;;4996516;28;20057;-73
2021/12/07 14:22:59;;;;;;;45.55;21.17;;;2.50;99.90;;;;;;5006218;28;20025;-74
2021/12/07 14:25:25;;;;;;;46.83;21.80;;;2.40;99.90;;;;;;5019195;28;20034;-74
2021/12/07 14:27:51;;;;;;;46.50;21.40;;;2.50;99.90;;;;;;5017907;28;20025;-74
2021/12/07 14:30:17;;;;;;;51.97;22.77;;;2.40;99.90;;;;;;5016879;28;20426;-75
2021/12/07 14:32:45;;;;;;;45.83;22.20;;;2.40;99.90;;;;;;5026432;28;20077;-74
2021/12/07 14:35:11;;;;;;;50.72;24.02;;;2.40;99.90;;;;;;5036901;28;20029;-74
2021/12/07 14:37:37;;;;;;;51.83;23.52;;;2.40;99.90;;;;;;5029225;28;20041;-73
2021/12/07 14:40:06;;;;;;;45.90;21.63;;;2.40;99.90;;;;;;5019029;28;20022;-74